This is the latest recevied weather packets stored in our database for station/object KN6DHD. If no packets are shown the sender has not sent any weather packets the latest 1 day(s).
| Time | Temp. | Humidity | Pressure | Rain* | Wind** | Luminosity | Snow |
|---|---|---|---|---|---|---|---|
| 1778027569 | 18.33° C | 75% | 1015.4 hPa | 0 mm | 0.45 m/s, 112° | 78 W/m² | - |
| 1778027265 | 18.33° C | 75% | 1015.7 hPa | 0 mm | 0.45 m/s, 114° | 83 W/m² | - |
| 1778026962 | 18.33° C | 75% | 1015.6 hPa | 0 mm | 0.89 m/s, 73° | 86 W/m² | - |
| 1778026658 | 18.33° C | 75% | 1015.5 hPa | 0 mm | 0.45 m/s, 115° | 88 W/m² | - |
| 1778026355 | 18.33° C | 74% | 1015.5 hPa | 0 mm | 0.89 m/s, 112° | 98 W/m² | - |
| 1778026052 | 18.89° C | 74% | 1015.4 hPa | 0 mm | 0.89 m/s, 107° | 104 W/m² | - |
| 1778025750 | 18.89° C | 74% | 1015.5 hPa | 0 mm | 0.45 m/s, 116° | 104 W/m² | - |
| 1778025446 | 18.89° C | 74% | 1015.4 hPa | 0 mm | 0.45 m/s, 117° | 114 W/m² | - |
| 1778025144 | 18.89° C | 74% | 1015.6 hPa | 0 mm | 0.45 m/s, 125° | 115 W/m² | - |
| 1778024841 | 18.89° C | 74% | 1015.5 hPa | 0 mm | 0 m/s | 119 W/m² | - |
| 1778024538 | 18.89° C | 74% | 1015.5 hPa | 0 mm | 0.45 m/s, 114° | 129 W/m² | - |
| 1778024234 | 18.33° C | 74% | 1015.2 hPa | 0 mm | 0.45 m/s, 49° | 134 W/m² | - |
| 1778023933 | 18.89° C | 74% | 1015.4 hPa | 0 mm | 0.45 m/s, 103° | 137 W/m² | - |
| 1778023630 | 18.89° C | 74% | 1015.5 hPa | 0 mm | 0.45 m/s, 90° | 131 W/m² | - |
| 1778023327 | 18.89° C | 73% | 1015.3 hPa | 0 mm | 0.45 m/s, 78° | 137 W/m² | - |
| 1778023024 | 18.89° C | 75% | 1015.5 hPa | 0 mm | 0.45 m/s, 123° | 144 W/m² | - |
| 1778022723 | 18.89° C | 73% | 1015.5 hPa | 0 mm | 0.89 m/s, 323° | 149 W/m² | - |
| 1778022421 | 18.89° C | 73% | 1015.5 hPa | 0 mm | 0.89 m/s, 151° | 145 W/m² | - |
| 1778022117 | 18.89° C | 74% | 1015.4 hPa | 0 mm | 0 m/s | 116 W/m² | - |
| 1778021813 | 18.89° C | 74% | 1015.6 hPa | 0 mm | 0.45 m/s, 160° | 108 W/m² | - |
| 1778021510 | 18.89° C | 73% | 1015.4 hPa | 0 mm | 0 m/s | 148 W/m² | - |
| 1778021205 | 20° C | 71% | 1015.6 hPa | 0 mm | 0.89 m/s, 206° | 425 W/m² | - |
| 1778020904 | 18.89° C | 74% | 1015.6 hPa | 0 mm | 0 m/s | 188 W/m² | - |
| 1778020601 | 19.44° C | 72% | 1015.6 hPa | 0 mm | 0.45 m/s, 67° | 174 W/m² | - |
| 1778020296 | 20° C | 72% | 1015.6 hPa | 0 mm | 0 m/s | 149 W/m² | - |
* Rain latest hour (hover to see other rain measurements)
** Current wind speed in m/s (hover to see current wind gust speed)